Aérodrome :
LOGIN :

S'inscrire | Disclaimer

   EN    FR    IT 

 










Légende :    VFR   VFR Marginal   IFR   IFR Intensif   IFR Très Intensif
Visi : 
Plafond : 
>= 8 km
>= 3000ft
5 à 8 km
1000 à 3000 ft
1500m à 5 km
500 à 1000 ft
800 à 1500m
200 à 500 ft
< 800m
< 200 ft
Symboles :   Orages  Brouillard  Fortes neiges  Fortes précipitations  Vent > 20 kt
SIGMETs :   Divers  Orages  Givrage  Turbulence  Onde Orograph.  Cendres Volcan.







- Altitude de l'aérodrome : 278 ft
- Code IATA : RJK


LDRI - Rijeka

DERNIER METAR :
  • 251530Z 28004KT 180V330 CAVOK 17/04 Q1009

METARs EXPIRÉS :
  • 251500Z 28004KT 240V330 CAVOK 17/05 Q1009
  • 251430Z 29005KT 210V330 CAVOK 17/05 Q1009
  • 251400Z 27005KT 230V330 CAVOK 17/04 Q1009
  • 251330Z 28006KT 230V330 CAVOK 17/05 Q1010
  • 251300Z 27005KT 230V330 CAVOK 17/03 Q1010

TAF TAF LDRI
Valide du 25 à 12h jusqu'au 26 à 12h UTC


251125Z 2512/2612 VRB02KT 9999 BKN030 TX18/2513Z TN05/2604Z
BECMG 2518/2520 04020G40KT
TEMPO 2519/2604 04030G55KT RA
PROB30
TEMPO 2519/2522 TSRA FEW025CB BKN030
Pas de NOTAMs connus pour ce terrain.
1 SIGMET publié pour la FIR Zagreb (LDZO) :
 
Orages noyés dans la masse
LDZO SIGMET 1 VALID 251400/251600 LDZA
LDZO ZAGREB FIR EMBD TS FCST N OF LINE N4603 E01544 - N4546 E01751 TOP FL200 MOV SE 10KT NC=



MET'MAP, la Météo Aéronautique d'un coup d'oeil ! - Copyright ORBIFLY Décembre 2007 - Disclaimer

ORBIFLY MET'MAP TEAM :

Programmation & Développement : Alexandra Zaïnal
Conception & Développement : Baudouin d'Aumeries
Co-Programmation & Développement : Marc-Olivier Méhu
Soutien technique & logistique : Manuel Goepfert

Contact : metmap@orbifly.com




SOURCES & CREDITS :

   NOAA